Time;durP1;ratioP1;P1;durP2;ratioP2;P2;SDS_P1;SDS_P2;PMS_P1;PMS_P2;Temp;Humidity;BMP_temperature;BMP_pressure;BME280_temperature;BME280_humidity;BME280_pressure;Samples;Min_cycle;Max_cycle;Signal;HPM_P1;HPM_P2
2023/03/27 00:01:30;;;;;;;4.70;0.73;;;;;;;;;;4996948;28;20025;-65
2023/03/27 00:03:56;;;;;;;2.75;0.90;;;;;;;;;;4996427;28;20053;-63
2023/03/27 00:06:23;;;;;;;2.00;0.70;;;;;;;;;;5001943;28;20478;-64
2023/03/27 00:08:51;;;;;;;2.75;0.80;;;;;;;;;;4999808;28;20061;-65
2023/03/27 00:11:17;;;;;;;3.00;0.90;;;;;;;;;;4994897;28;20022;-65
2023/03/27 00:13:43;;;;;;;3.30;0.93;;;;;;;;;;4997046;28;20025;-64
2023/03/27 00:16:08;;;;;;;4.50;1.45;;;;;;;;;;4994826;28;20026;-65
2023/03/27 00:18:35;;;;;;;2.80;1.00;;;;;;;;;;4999707;28;20026;-63
2023/03/27 00:21:02;;;;;;;4.65;1.17;;;;;;;;;;4995676;28;20405;-63
2023/03/27 00:23:28;;;;;;;;;;;;;;;;;;4992357;28;20110;-62
2023/03/27 00:25:53;;;;;;;4.47;1.45;;;;;;;;;;4994273;28;19910;-62
2023/03/27 00:28:19;;;;;;;4.95;1.50;;;;;;;;;;4996768;28;20478;-62
2023/03/27 00:30:46;;;;;;;4.32;1.48;;;;;;;;;;4993901;28;20385;-62
2023/03/27 00:33:11;;;;;;;4.60;1.52;;;;;;;;;;4994789;28;20018;-63
2023/03/27 00:35:36;;;;;;;5.63;1.67;;;;;;;;;;4999701;28;20400;-64
2023/03/27 00:38:01;;;;;;;4.28;1.60;;;;;;;;;;4995659;28;20025;-63
2023/03/27 00:40:27;;;;;;;4.83;1.73;;;;;;;;;;4993960;28;20057;-64
2023/03/27 00:42:56;;;;;;;6.03;1.90;;;;;;;;;;4999519;28;20101;-64
2023/03/27 00:45:23;;;;;;;5.82;1.58;;;;;;;;;;4999674;28;20335;-63
2023/03/27 00:47:52;;;;;;;5.25;2.00;;;;;;;;;;4992167;28;20033;-64
2023/03/27 00:50:19;;;;;;;6.00;1.95;;;;;;;;;;5000878;28;20014;-64
2023/03/27 00:52:46;;;;;;;6.85;2.35;;;;;;;;;;4994888;28;20010;-64
2023/03/27 00:55:13;;;;;;;7.00;2.78;;;;;;;;;;5000533;28;20030;-64
2023/03/27 00:57:39;;;;;;;5.07;2.28;;;;;;;;;;4992870;28;20022;-64
2023/03/27 01:00:12;;;;;;;6.97;2.97;;;;;;;;;;4997697;28;20526;-63
2023/03/27 01:02:37;;;;;;;13.30;4.38;;;;;;;;;;4989621;28;20037;-62
2023/03/27 01:05:03;;;;;;;13.35;4.78;;;;;;;;;;4997195;28;20105;-63
2023/03/27 01:07:29;;;;;;;12.50;5.15;;;;;;;;;;4995583;28;20124;-61
2023/03/27 01:09:55;;;;;;;12.20;4.47;;;;;;;;;;5002213;28;20026;-62
2023/03/27 01:12:35;;;;;;;11.13;3.80;;;;;;;;;;4990980;28;20486;-61
2023/03/27 01:15:19;;;;;;;13.90;3.80;;;;;;;;;;4995652;28;20034;-62
2023/03/27 01:17:47;;;;;;;13.23;3.80;;;;;;;;;;4999850;28;20032;-63
2023/03/27 01:20:15;;;;;;;11.15;3.40;;;;;;;;;;5002043;28;20131;-62
2023/03/27 01:22:47;;;;;;;12.35;3.67;;;;;;;;;;4991281;28;20046;-61
2023/03/27 01:25:16;;;;;;;9.07;3.05;;;;;;;;;;4995504;28;20109;-61
2023/03/27 01:27:53;;;;;;;11.30;2.95;;;;;;;;;;4992194;28;20049;-63
2023/03/27 01:30:20;;;;;;;7.65;2.70;;;;;;;;;;4994897;28;20026;-61
2023/03/27 01:32:45;;;;;;;8.40;2.35;;;;;;;;;;4997171;28;20026;-62
2023/03/27 01:35:23;;;;;;;11.57;2.70;;;;;;;;;;4998382;28;20105;-62
2023/03/27 01:38:14;;;;;;;8.93;2.20;;;;;;;;;;4990647;28;20053;-61
2023/03/27 01:40:48;;;;;;;9.60;1.92;;;;;;;;;;4992595;28;20015;-60
2023/03/27 01:43:19;;;;;;;7.88;1.52;;;;;;;;;;4994966;28;20026;-62
2023/03/27 01:46:03;;;;;;;8.50;1.75;;;;;;;;;;5006383;28;20018;-62
2023/03/27 01:48:43;;;;;;;9.68;2.00;;;;;;;;;;4994105;28;20026;-62
2023/03/27 01:51:12;;;;;;;19.85;2.50;;;;;;;;;;4999323;28;20025;-62
2023/03/27 01:53:41;;;;;;;11.85;2.47;;;;;;;;;;4995291;28;20105;-62
2023/03/27 01:56:09;;;;;;;11.60;2.17;;;;;;;;;;5003829;28;20026;-62
2023/03/27 01:58:37;;;;;;;9.50;1.80;;;;;;;;;;4993861;28;20027;-62
2023/03/27 02:01:03;;;;;;;8.85;1.85;;;;;;;;;;5003579;28;20049;-62
2023/03/27 02:03:39;;;;;;;11.18;1.90;;;;;;;;;;5003370;28;20037;-60
2023/03/27 02:06:09;;;;;;;8.00;1.83;;;;;;;;;;5001992;28;20033;-61
2023/03/27 02:08:37;;;;;;;10.43;1.95;;;;;;;;;;5008795;28;20018;-61
2023/03/27 02:11:03;;;;;;;8.85;2.10;;;;;;;;;;5000734;28;20026;-62
2023/03/27 02:13:34;;;;;;;10.05;2.60;;;;;;;;;;5001720;28;20018;-62
2023/03/27 02:16:00;;;;;;;9.20;2.55;;;;;;;;;;5000643;28;20394;-61
2023/03/27 02:18:32;;;;;;;6.65;2.10;;;;;;;;;;4997821;28;20025;-60
2023/03/27 02:20:57;;;;;;;11.15;2.50;;;;;;;;;;5002390;28;20038;-62
2023/03/27 02:23:22;;;;;;;9.17;2.23;;;;;;;;;;5002948;28;20093;-61
2023/03/27 02:25:48;;;;;;;15.25;2.40;;;;;;;;;;4993945;28;20033;-62
2023/03/27 02:28:28;;;;;;;7.03;2.03;;;;;;;;;;4993454;28;20037;-61
2023/03/27 02:31:14;;;;;;;13.65;2.30;;;;;;;;;;4997958;28;20527;-61
2023/03/27 02:33:41;;;;;;;9.75;2.08;;;;;;;;;;4996656;28;20505;-61
2023/03/27 02:36:23;;;;;;;10.02;2.42;;;;;;;;;;5001552;28;20034;-61
2023/03/27 02:38:54;;;;;;;11.07;2.78;;;;;;;;;;4999974;28;20033;-63
2023/03/27 02:41:29;;;;;;;14.02;2.95;;;;;;;;;;4993458;28;20153;-61
2023/03/27 02:43:54;;;;;;;11.05;2.53;;;;;;;;;;4993064;28;20022;-62
2023/03/27 02:46:27;;;;;;;10.10;2.30;;;;;;;;;;4992573;28;20026;-62
2023/03/27 02:48:52;;;;;;;;;;;;;;;;;;4997188;28;20402;-61
2023/03/27 02:51:37;;;;;;;10.07;2.97;;;;;;;;;;4999140;28;19916;-62
2023/03/27 02:54:05;;;;;;;14.27;2.58;;;;;;;;;;4997163;28;20034;-62
2023/03/27 02:56:32;;;;;;;10.98;2.75;;;;;;;;;;4997785;28;20501;-61
2023/03/27 02:59:02;;;;;;;9.60;2.40;;;;;;;;;;5005320;28;20041;-64
2023/03/27 03:01:31;;;;;;;13.27;2.33;;;;;;;;;;5002691;28;20040;-62
2023/03/27 03:03:58;;;;;;;10.98;2.70;;;;;;;;;;4999448;28;20030;-62
2023/03/27 03:06:29;;;;;;;11.05;2.50;;;;;;;;;;5005365;28;20013;-62
2023/03/27 03:09:05;;;;;;;9.45;2.80;;;;;;;;;;5000269;28;20477;-61
2023/03/27 03:11:30;;;;;;;11.30;2.50;;;;;;;;;;4991742;28;20041;-62
2023/03/27 03:13:55;;;;;;;9.30;2.23;;;;;;;;;;4993646;28;20572;-62
2023/03/27 03:16:21;;;;;;;9.30;2.63;;;;;;;;;;4992959;28;20030;-61
2023/03/27 03:18:47;;;;;;;11.93;2.30;;;;;;;;;;4998477;28;20030;-62
2023/03/27 03:21:12;;;;;;;12.13;3.28;;;;;;;;;;4992897;28;20081;-63
2023/03/27 03:23:37;;;;;;;10.98;2.83;;;;;;;;;;4992930;28;20496;-62
2023/03/27 03:26:03;;;;;;;9.80;2.80;;;;;;;;;;4992552;28;20042;-62
2023/03/27 03:28:28;;;;;;;10.27;2.55;;;;;;;;;;5005380;28;20462;-62
2023/03/27 03:30:53;;;;;;;9.95;2.42;;;;;;;;;;5012166;28;20034;-62
2023/03/27 03:33:20;;;;;;;9.77;2.92;;;;;;;;;;5012018;28;20426;-61
2023/03/27 03:35:46;;;;;;;8.45;2.83;;;;;;;;;;5004731;28;20026;-60
2023/03/27 03:38:11;;;;;;;13.98;3.20;;;;;;;;;;4992691;28;20022;-61
2023/03/27 03:40:36;;;;;;;12.13;3.13;;;;;;;;;;4992436;28;20064;-62
2023/03/27 03:43:01;;;;;;;13.23;2.80;;;;;;;;;;5000517;28;20470;-62
2023/03/27 03:45:26;;;;;;;8.30;3.00;;;;;;;;;;5003198;28;20029;-62
2023/03/27 03:47:51;;;;;;;15.40;3.15;;;;;;;;;;5002354;28;20021;-61
2023/03/27 03:50:17;;;;;;;11.98;2.60;;;;;;;;;;4998988;28;20061;-62
2023/03/27 03:52:43;;;;;;;11.90;2.67;;;;;;;;;;4995679;28;20026;-62
2023/03/27 03:55:09;;;;;;;11.55;3.20;;;;;;;;;;5001314;28;20450;-62
2023/03/27 03:57:35;;;;;;;11.75;3.83;;;;;;;;;;4997624;28;20184;-61
2023/03/27 04:00:01;;;;;;;12.68;3.58;;;;;;;;;;4999584;28;20061;-61
2023/03/27 04:02:29;;;;;;;9.98;3.42;;;;;;;;;;4995899;28;20050;-61
2023/03/27 04:04:55;;;;;;;8.68;3.38;;;;;;;;;;4999047;28;20023;-61
2023/03/27 04:07:20;;;;;;;14.90;3.60;;;;;;;;;;5000468;28;20015;-61
2023/03/27 04:09:46;;;;;;;14.90;3.40;;;;;;;;;;5003526;28;20022;-61
2023/03/27 04:12:11;;;;;;;11.50;3.95;;;;;;;;;;5010558;28;20030;-61
2023/03/27 04:14:37;;;;;;;13.40;3.63;;;;;;;;;;5001416;28;20022;-61
2023/03/27 04:17:02;;;;;;;13.10;3.45;;;;;;;;;;5000794;28;20129;-61
2023/03/27 04:19:27;;;;;;;11.07;3.50;;;;;;;;;;4996014;28;20054;-62
2023/03/27 04:21:55;;;;;;;12.95;4.03;;;;;;;;;;4995851;28;20441;-62
2023/03/27 04:24:20;;;;;;;11.82;3.47;;;;;;;;;;4997191;28;20477;-61
2023/03/27 04:26:46;;;;;;;15.45;3.88;;;;;;;;;;5003022;28;20508;-61
2023/03/27 04:29:11;;;;;;;14.25;4.03;;;;;;;;;;4997504;28;20486;-62
2023/03/27 04:31:37;;;;;;;10.63;3.17;;;;;;;;;;5000448;28;20065;-62
2023/03/27 04:34:03;;;;;;;11.45;3.70;;;;;;;;;;4990752;28;20026;-62
2023/03/27 04:36:28;;;;;;;11.45;3.47;;;;;;;;;;4988196;28;20699;-61
2023/03/27 04:38:53;;;;;;;10.63;3.47;;;;;;;;;;4990268;28;20034;-62
2023/03/27 04:41:20;;;;;;;11.77;3.90;;;;;;;;;;4989608;28;20019;-63
2023/03/27 04:43:45;;;;;;;9.40;3.38;;;;;;;;;;4987778;28;20023;-62
2023/03/27 04:46:10;;;;;;;12.20;3.83;;;;;;;;;;4988899;28;20076;-61
2023/03/27 04:48:37;;;;;;;15.48;4.38;;;;;;;;;;4991364;28;20125;-62
2023/03/27 04:51:02;;;;;;;9.23;3.08;;;;;;;;;;4999525;28;20038;-62
2023/03/27 04:53:29;;;;;;;10.60;3.08;;;;;;;;;;4992921;28;20029;-61
2023/03/27 04:55:56;;;;;;;14.98;3.72;;;;;;;;;;4988696;28;20021;-60
2023/03/27 04:58:22;;;;;;;11.50;3.10;;;;;;;;;;4987948;28;20030;-62
2023/03/27 05:00:49;;;;;;;13.43;2.65;;;;;;;;;;4991801;28;20033;-62
2023/03/27 05:03:14;;;;;;;8.82;3.00;;;;;;;;;;4990287;28;20069;-62
2023/03/27 05:05:39;;;;;;;6.17;2.27;;;;;;;;;;4986028;28;20413;-62
2023/03/27 05:08:05;;;;;;;11.38;2.47;;;;;;;;;;4999046;28;20029;-61
2023/03/27 05:10:30;;;;;;;7.07;2.27;;;;;;;;;;4998724;28;20030;-61
2023/03/27 05:12:55;;;;;;;10.88;2.15;;;;;;;;;;4995127;28;20038;-60
2023/03/27 05:15:20;;;;;;;9.97;2.20;;;;;;;;;;4996722;28;20101;-61
2023/03/27 05:17:51;;;;;;;6.72;1.88;;;;;;;;;;4990978;28;20022;-61
2023/03/27 05:20:16;;;;;;;7.68;2.30;;;;;;;;;;4998795;28;20060;-61
2023/03/27 05:22:42;;;;;;;11.10;2.43;;;;;;;;;;5000658;28;20371;-61
2023/03/27 05:25:07;;;;;;;10.77;2.90;;;;;;;;;;4989823;28;20486;-61
2023/03/27 05:27:33;;;;;;;7.90;2.27;;;;;;;;;;4996153;28;20026;-61
2023/03/27 05:29:58;;;;;;;7.85;1.90;;;;;;;;;;4990555;28;21058;-61
2023/03/27 05:32:23;;;;;;;12.18;2.75;;;;;;;;;;4999362;28;20018;-61
2023/03/27 05:34:53;;;;;;;8.27;2.10;;;;;;;;;;5014096;28;20123;-61
2023/03/27 05:37:18;;;;;;;7.60;2.05;;;;;;;;;;5007647;28;20022;-61
2023/03/27 05:39:46;;;;;;;8.55;2.10;;;;;;;;;;5014083;28;20014;-60
2023/03/27 05:42:13;;;;;;;9.90;2.28;;;;;;;;;;5002149;28;20015;-61
2023/03/27 05:44:38;;;;;;;7.95;2.13;;;;;;;;;;4998602;28;20026;-60
2023/03/27 05:47:03;;;;;;;7.13;1.90;;;;;;;;;;4994201;28;20018;-61
2023/03/27 05:49:28;;;;;;;5.90;1.87;;;;;;;;;;4994368;28;20472;-61
2023/03/27 05:51:53;;;;;;;6.93;2.03;;;;;;;;;;5000563;28;20025;-61
2023/03/27 05:54:19;;;;;;;6.60;1.90;;;;;;;;;;5001481;28;20478;-60
2023/03/27 05:56:44;;;;;;;4.38;1.58;;;;;;;;;;5002039;28;20092;-60
2023/03/27 05:59:09;;;;;;;5.90;1.70;;;;;;;;;;5008567;28;20099;-60
2023/03/27 06:01:34;;;;;;;7.57;2.30;;;;;;;;;;5004131;28;20041;-61
2023/03/27 06:04:00;;;;;;;7.53;1.98;;;;;;;;;;5001971;28;20065;-61
2023/03/27 06:06:25;;;;;;;7.30;2.30;;;;;;;;;;5004549;28;20125;-62
2023/03/27 06:08:50;;;;;;;7.40;1.70;;;;;;;;;;4998265;28;20393;-61
2023/03/27 06:11:15;;;;;;;7.90;1.80;;;;;;;;;;5001319;28;20516;-62
2023/03/27 06:13:41;;;;;;;6.53;1.80;;;;;;;;;;5000370;28;20014;-61
2023/03/27 06:16:06;;;;;;;5.95;1.80;;;;;;;;;;5004896;28;20033;-60
2023/03/27 06:18:32;;;;;;;5.57;1.80;;;;;;;;;;5005285;28;20132;-62
2023/03/27 06:20:58;;;;;;;6.53;1.90;;;;;;;;;;4999909;28;20025;-61
2023/03/27 06:23:23;;;;;;;7.05;2.15;;;;;;;;;;5001874;28;20053;-62
2023/03/27 06:25:50;;;;;;;7.73;2.00;;;;;;;;;;5005541;28;20026;-61
2023/03/27 06:28:15;;;;;;;6.88;2.10;;;;;;;;;;5001443;28;20030;-60
2023/03/27 06:30:41;;;;;;;8.10;2.10;;;;;;;;;;5008395;28;20088;-61
2023/03/27 06:33:06;;;;;;;5.85;2.00;;;;;;;;;;5008970;28;20053;-61
2023/03/27 06:35:32;;;;;;;6.82;2.30;;;;;;;;;;5008271;28;20072;-61
2023/03/27 06:37:58;;;;;;;7.20;2.28;;;;;;;;;;5001646;28;20145;-61
2023/03/27 06:40:24;;;;;;;8.13;3.10;;;;;;;;;;5002188;28;20053;-61
2023/03/27 06:43:03;;;;;;;7.30;2.40;;;;;;;;;;5000288;28;20037;-60
2023/03/27 06:45:30;;;;;;;5.57;2.10;;;;;;;;;;5007444;28;20030;-60
2023/03/27 06:47:57;;;;;;;5.05;2.03;;;;;;;;;;5004327;28;20437;-60
2023/03/27 06:50:23;;;;;;;6.65;1.90;;;;;;;;;;5009181;28;20045;-61
2023/03/27 06:52:48;;;;;;;7.35;2.20;;;;;;;;;;5002582;28;20050;-62
2023/03/27 06:55:14;;;;;;;11.10;2.10;;;;;;;;;;4996052;28;20022;-61
2023/03/27 06:57:43;;;;;;;5.50;1.70;;;;;;;;;;5002559;28;20462;-61
2023/03/27 07:00:13;;;;;;;4.20;1.70;;;;;;;;;;5004174;28;20029;-60
2023/03/27 07:02:39;;;;;;;8.32;1.70;;;;;;;;;;5001554;28;20029;-61
2023/03/27 07:05:06;;;;;;;6.40;1.77;;;;;;;;;;4996911;28;20033;-61
2023/03/27 07:07:31;;;;;;;7.57;2.22;;;;;;;;;;5007325;28;20527;-62
2023/03/27 07:09:56;;;;;;;4.60;1.65;;;;;;;;;;5006347;28;20497;-62
2023/03/27 07:12:21;;;;;;;4.55;1.15;;;;;;;;;;4996215;28;20030;-62
2023/03/27 07:14:46;;;;;;;3.87;1.00;;;;;;;;;;4994009;28;20072;-61
2023/03/27 07:17:11;;;;;;;3.35;1.20;;;;;;;;;;5004774;28;20034;-61
2023/03/27 07:19:37;;;;;;;4.50;1.20;;;;;;;;;;4992291;28;20035;-61
2023/03/27 07:22:02;;;;;;;3.80;1.30;;;;;;;;;;4993177;28;20475;-61
2023/03/27 07:24:27;;;;;;;3.30;0.98;;;;;;;;;;4993381;28;20029;-62
2023/03/27 07:26:52;;;;;;;3.87;1.00;;;;;;;;;;4992487;28;20022;-62
2023/03/27 07:29:17;;;;;;;3.00;0.88;;;;;;;;;;4993124;28;20026;-61
2023/03/27 07:31:43;;;;;;;4.57;1.13;;;;;;;;;;5012655;28;20076;-62
2023/03/27 07:34:09;;;;;;;3.45;0.82;;;;;;;;;;5012215;28;20026;-63
2023/03/27 07:36:35;;;;;;;2.60;0.77;;;;;;;;;;5011832;28;20359;-63
2023/03/27 07:39:00;;;;;;;1.48;0.60;;;;;;;;;;5012392;28;20022;-63
2023/03/27 07:41:25;;;;;;;2.15;0.57;;;;;;;;;;5012096;28;20153;-62
2023/03/27 07:43:50;;;;;;;2.00;0.60;;;;;;;;;;5012210;28;20026;-63
2023/03/27 07:46:15;;;;;;;3.13;0.70;;;;;;;;;;5009680;28;20041;-62
2023/03/27 07:48:40;;;;;;;3.35;0.80;;;;;;;;;;5010613;28;20025;-62
2023/03/27 07:51:06;;;;;;;3.25;0.80;;;;;;;;;;4992809;28;20085;-62
2023/03/27 07:53:31;;;;;;;4.17;0.90;;;;;;;;;;4992892;28;20105;-61
2023/03/27 07:55:57;;;;;;;3.63;1.00;;;;;;;;;;5006024;28;20483;-61
2023/03/27 07:58:23;;;;;;;4.05;0.80;;;;;;;;;;5009690;28;20022;-62
2023/03/27 08:00:50;;;;;;;3.13;0.80;;;;;;;;;;5011752;28;20041;-62
2023/03/27 08:03:16;;;;;;;2.95;0.88;;;;;;;;;;5005384;28;20037;-62
2023/03/27 08:05:41;;;;;;;4.43;0.93;;;;;;;;;;4992408;28;20053;-62
2023/03/27 08:08:06;;;;;;;2.10;0.93;;;;;;;;;;4992139;28;20088;-61
2023/03/27 08:10:32;;;;;;;3.90;1.20;;;;;;;;;;4992059;28;20023;-61
2023/03/27 08:12:57;;;;;;;4.82;1.00;;;;;;;;;;4992723;28;20080;-62
2023/03/27 08:15:23;;;;;;;3.72;1.00;;;;;;;;;;4992357;28;20038;-62
2023/03/27 08:17:52;;;;;;;4.63;1.10;;;;;;;;;;4991646;28;20022;-63
2023/03/27 08:20:17;;;;;;;4.10;1.00;;;;;;;;;;4992136;28;20026;-62
2023/03/27 08:22:43;;;;;;;3.42;1.02;;;;;;;;;;4992185;28;20033;-62
2023/03/27 08:25:11;;;;;;;4.45;1.27;;;;;;;;;;4990506;28;20448;-62
2023/03/27 08:27:37;;;;;;;6.15;1.05;;;;;;;;;;4991277;28;20026;-62
2023/03/27 08:30:03;;;;;;;4.38;1.10;;;;;;;;;;4991640;28;20040;-62
2023/03/27 08:32:28;;;;;;;3.03;0.90;;;;;;;;;;4991829;28;20042;-62
2023/03/27 08:34:54;;;;;;;4.15;1.20;;;;;;;;;;4991613;28;20065;-62
2023/03/27 08:37:19;;;;;;;2.63;0.90;;;;;;;;;;5003369;28;20030;-62
2023/03/27 08:39:46;;;;;;;6.07;1.02;;;;;;;;;;5011134;28;20491;-63
2023/03/27 08:42:16;;;;;;;3.75;1.00;;;;;;;;;;5010591;28;20536;-63
2023/03/27 08:44:42;;;;;;;2.60;0.80;;;;;;;;;;5001234;28;20025;-63
2023/03/27 08:47:10;;;;;;;4.30;0.82;;;;;;;;;;4990973;28;20030;-62
2023/03/27 08:49:40;;;;;;;2.70;0.80;;;;;;;;;;4991418;28;20026;-61
2023/03/27 08:52:14;;;;;;;3.42;0.77;;;;;;;;;;4991409;28;20031;-62
2023/03/27 08:54:41;;;;;;;2.17;0.80;;;;;;;;;;4996601;28;20010;-62
2023/03/27 08:57:19;;;;;;;3.40;0.90;;;;;;;;;;5010540;28;20034;-61
2023/03/27 08:59:45;;;;;;;2.35;0.73;;;;;;;;;;5011031;28;20104;-62
2023/03/27 09:02:13;;;;;;;2.75;0.55;;;;;;;;;;5010933;28;20026;-63
2023/03/27 09:04:43;;;;;;;3.20;0.98;;;;;;;;;;4994187;28;20018;-63
2023/03/27 09:07:08;;;;;;;2.03;0.63;;;;;;;;;;5013304;28;20116;-64
2023/03/27 09:09:45;;;;;;;3.25;0.95;;;;;;;;;;5015243;28;20117;-63
2023/03/27 09:12:10;;;;;;;3.33;1.10;;;;;;;;;;5015296;28;20056;-63
2023/03/27 09:14:37;;;;;;;5.07;1.07;;;;;;;;;;5013144;28;20022;-62
2023/03/27 09:17:10;;;;;;;2.78;1.02;;;;;;;;;;5009460;28;20022;-62
2023/03/27 09:19:44;;;;;;;4.13;1.25;;;;;;;;;;5009379;28;20038;-63
2023/03/27 09:22:12;;;;;;;4.35;0.82;;;;;;;;;;5013347;28;20109;-63
2023/03/27 09:24:39;;;;;;;4.35;1.13;;;;;;;;;;5014656;28;20385;-62
2023/03/27 09:27:16;;;;;;;4.10;0.93;;;;;;;;;;5013978;28;20500;-62
2023/03/27 09:29:41;;;;;;;2.28;0.80;;;;;;;;;;5014484;28;20072;-63
2023/03/27 09:32:11;;;;;;;4.47;1.10;;;;;;;;;;5014759;28;20081;-62
2023/03/27 09:34:36;;;;;;;5.28;1.02;;;;;;;;;;5014583;28;20049;-62
2023/03/27 09:37:01;;;;;;;3.13;0.85;;;;;;;;;;5012119;28;20478;-63
2023/03/27 09:39:28;;;;;;;4.87;1.13;;;;;;;;;;5014731;28;20025;-62
2023/03/27 09:41:57;;;;;;;2.53;0.80;;;;;;;;;;5014530;28;20393;-63
2023/03/27 09:44:33;;;;;;;3.53;0.95;;;;;;;;;;5014493;28;20096;-63
2023/03/27 09:47:18;;;;;;;3.03;0.90;;;;;;;;;;5014026;28;20036;-63
2023/03/27 09:49:48;;;;;;;2.85;0.90;;;;;;;;;;5014296;28;20034;-62
2023/03/27 09:52:32;;;;;;;4.20;1.00;;;;;;;;;;5008760;28;20037;-62
2023/03/27 09:54:57;;;;;;;3.38;0.90;;;;;;;;;;5013357;28;20014;-63
2023/03/27 09:57:27;;;;;;;3.27;0.77;;;;;;;;;;5013151;28;20022;-62
2023/03/27 09:59:57;;;;;;;6.13;1.10;;;;;;;;;;5014367;28;20041;-62
2023/03/27 10:02:26;;;;;;;3.72;0.80;;;;;;;;;;5013970;28;20032;-62
2023/03/27 10:04:59;;;;;;;4.72;1.00;;;;;;;;;;5013889;28;20064;-62
2023/03/27 10:07:25;;;;;;;4.07;1.00;;;;;;;;;;5002499;28;20034;-62
2023/03/27 10:10:07;;;;;;;3.17;1.17;;;;;;;;;;4994067;28;20470;-61
2023/03/27 10:12:33;;;;;;;4.13;0.80;;;;;;;;;;4994259;28;20030;-62
2023/03/27 10:14:58;;;;;;;4.13;1.02;;;;;;;;;;4994332;28;20097;-63
2023/03/27 10:17:25;;;;;;;5.43;1.17;;;;;;;;;;4992352;28;20102;-62
2023/03/27 10:19:51;;;;;;;3.80;1.00;;;;;;;;;;4994482;28;20026;-63
2023/03/27 10:22:27;;;;;;;4.55;1.20;;;;;;;;;;4994172;28;20034;-62
2023/03/27 10:24:52;;;;;;;5.57;1.10;;;;;;;;;;5002727;28;20015;-63
2023/03/27 10:27:22;;;;;;;5.53;1.83;;;;;;;;;;5007356;28;20095;-63
2023/03/27 10:29:47;;;;;;;3.60;1.00;;;;;;;;;;5011287;28;20057;-62
2023/03/27 10:32:13;;;;;;;7.10;0.90;;;;;;;;;;5013492;28;20093;-63
2023/03/27 10:34:49;;;;;;;4.53;1.17;;;;;;;;;;5011387;28;20022;-62
2023/03/27 10:37:28;;;;;;;5.55;1.00;;;;;;;;;;5013177;28;20024;-63
2023/03/27 10:39:54;;;;;;;6.90;1.00;;;;;;;;;;5001564;28;20018;-62
2023/03/27 10:42:21;;;;;;;;;;;;;;;;;;4994587;28;20068;-62
2023/03/27 10:44:47;;;;;;;3.33;1.00;;;;;;;;;;4993689;28;20016;-62
2023/03/27 10:47:14;;;;;;;2.92;0.70;;;;;;;;;;5008077;28;20050;-62
2023/03/27 10:49:44;;;;;;;6.13;0.95;;;;;;;;;;4993647;28;20033;-62
2023/03/27 10:52:15;;;;;;;4.65;0.80;;;;;;;;;;4998295;28;20060;-61
2023/03/27 10:54:45;;;;;;;5.82;1.00;;;;;;;;;;5013106;28;20512;-64
2023/03/27 10:57:15;;;;;;;3.30;0.77;;;;;;;;;;4996002;28;20482;-62
2023/03/27 10:59:54;;;;;;;4.13;0.70;;;;;;;;;;4993415;28;20026;-63
2023/03/27 11:02:21;;;;;;;4.18;0.82;;;;;;;;;;4993628;28;20033;-62
2023/03/27 11:04:53;;;;;;;3.80;0.73;;;;;;;;;;4993515;28;20109;-62
2023/03/27 11:07:28;;;;;;;3.53;0.70;;;;;;;;;;4993112;28;20133;-62
2023/03/27 11:10:20;;;;;;;3.83;0.70;;;;;;;;;;4993362;28;20029;-62
2023/03/27 11:12:49;;;;;;;3.22;0.95;;;;;;;;;;4970134;28;20031;-62
2023/03/27 11:15:18;;;;;;;4.35;0.90;;;;;;;;;;4991818;28;20022;-62
2023/03/27 11:17:55;;;;;;;3.85;0.70;;;;;;;;;;4992262;28;20026;-62
2023/03/27 11:20:24;;;;;;;5.22;0.60;;;;;;;;;;4993204;28;20045;-62
2023/03/27 11:22:55;;;;;;;3.13;0.80;;;;;;;;;;4993005;28;20101;-62
2023/03/27 11:25:26;;;;;;;4.57;0.90;;;;;;;;;;4993070;28;20081;-62
2023/03/27 11:28:04;;;;;;;3.35;0.80;;;;;;;;;;5004550;28;20030;-62
2023/03/27 11:30:31;;;;;;;3.13;0.80;;;;;;;;;;4995185;28;20042;-61
2023/03/27 11:33:15;;;;;;;4.38;0.93;;;;;;;;;;4992875;28;20457;-62
2023/03/27 11:35:41;;;;;;;;;;;;;;;;;;4993667;28;20050;-61
2023/03/27 11:38:11;;;;;;;4.93;0.60;;;;;;;;;;4997281;28;19952;-63
2023/03/27 11:40:44;;;;;;;4.05;0.68;;;;;;;;;;5007032;28;20033;-63
2023/03/27 11:43:10;;;;;;;3.92;0.77;;;;;;;;;;4991789;28;20122;-62
2023/03/27 11:45:40;;;;;;;3.75;0.85;;;;;;;;;;4992680;28;20034;-62
2023/03/27 11:48:25;;;;;;;2.72;0.70;;;;;;;;;;4992673;28;20018;-62
2023/03/27 11:51:08;;;;;;;6.38;1.00;;;;;;;;;;4996703;28;20052;-63
2023/03/27 11:53:44;;;;;;;5.35;0.90;;;;;;;;;;5011935;28;20497;-63
2023/03/27 11:56:28;;;;;;;4.15;0.70;;;;;;;;;;5011202;28;20113;-63
2023/03/27 11:59:19;;;;;;;4.35;0.70;;;;;;;;;;4992173;28;20022;-62
2023/03/27 12:01:52;;;;;;;3.47;0.73;;;;;;;;;;4990077;28;20030;-63
2023/03/27 12:04:37;;;;;;;3.45;0.73;;;;;;;;;;4992217;28;20022;-63
2023/03/27 12:07:09;;;;;;;7.65;0.80;;;;;;;;;;4992026;28;20026;-62
2023/03/27 12:09:40;;;;;;;7.57;0.85;;;;;;;;;;4992180;28;20072;-62
2023/03/27 12:12:26;;;;;;;4.68;0.88;;;;;;;;;;4996164;28;20018;-62
2023/03/27 12:14:56;;;;;;;4.53;0.82;;;;;;;;;;5009817;28;20021;-61
2023/03/27 12:17:36;;;;;;;3.28;0.68;;;;;;;;;;5010564;28;20071;-62
2023/03/27 12:20:04;;;;;;;7.03;0.93;;;;;;;;;;5012039;28;20539;-63
2023/03/27 12:22:48;;;;;;;4.78;0.80;;;;;;;;;;5011721;28;20389;-61
2023/03/27 12:25:31;;;;;;;6.35;0.80;;;;;;;;;;5012042;28;20032;-62
2023/03/27 12:28:02;;;;;;;5.82;0.77;;;;;;;;;;5003785;28;20025;-63
2023/03/27 12:30:35;;;;;;;4.90;0.90;;;;;;;;;;4991237;28;20046;-62
2023/03/27 12:33:13;;;;;;;3.88;0.80;;;;;;;;;;4992448;28;20018;-63
2023/03/27 12:35:41;;;;;;;3.65;0.70;;;;;;;;;;4992382;28;20101;-61
2023/03/27 12:38:20;;;;;;;5.35;0.90;;;;;;;;;;4991226;28;20486;-62
2023/03/27 12:40:48;;;;;;;4.47;0.80;;;;;;;;;;4991263;28;20080;-62
2023/03/27 12:43:38;;;;;;;7.95;0.93;;;;;;;;;;4991298;28;20037;-62
2023/03/27 12:46:18;;;;;;;5.97;0.80;;;;;;;;;;4990898;28;20022;-62
2023/03/27 12:48:52;;;;;;;6.47;1.10;;;;;;;;;;4999677;28;20488;-62
2023/03/27 12:51:19;;;;;;;4.38;0.80;;;;;;;;;;4999223;28;20036;-62
2023/03/27 12:53:45;;;;;;;4.07;0.73;;;;;;;;;;4991145;28;20045;-61
2023/03/27 12:56:15;;;;;;;3.78;0.80;;;;;;;;;;4998129;28;20466;-63
2023/03/27 12:58:40;;;;;;;3.40;0.65;;;;;;;;;;5009932;28;20033;-62
2023/03/27 13:01:06;;;;;;;3.75;0.80;;;;;;;;;;5001725;28;20022;-62
2023/03/27 13:03:48;;;;;;;5.78;0.80;;;;;;;;;;4990973;28;20029;-62
2023/03/27 13:06:18;;;;;;;3.63;0.60;;;;;;;;;;4990874;28;20029;-62
2023/03/27 13:08:49;;;;;;;3.58;0.60;;;;;;;;;;4991033;28;20018;-62
2023/03/27 13:11:29;;;;;;;5.13;0.90;;;;;;;;;;4991418;28;20038;-63
2023/03/27 13:14:00;;;;;;;5.32;1.05;;;;;;;;;;4990922;28;20475;-63
2023/03/27 13:16:25;;;;;;;5.47;0.95;;;;;;;;;;4990554;28;20482;-63
2023/03/27 13:19:13;;;;;;;2.83;0.50;;;;;;;;;;4990908;28;20129;-62
2023/03/27 13:21:47;;;;;;;4.32;0.80;;;;;;;;;;4991396;28;20463;-62
2023/03/27 13:24:31;;;;;;;5.90;0.85;;;;;;;;;;4990941;28;20022;-62
2023/03/27 13:27:15;;;;;;;5.10;0.70;;;;;;;;;;4994505;28;20509;-63
2023/03/27 13:29:41;;;;;;;5.55;0.80;;;;;;;;;;4991556;28;20038;-63
2023/03/27 13:32:18;;;;;;;3.75;0.60;;;;;;;;;;4990169;28;20125;-63
2023/03/27 13:34:58;;;;;;;2.55;0.57;;;;;;;;;;4991085;28;20089;-63
2023/03/27 13:37:24;;;;;;;3.45;0.60;;;;;;;;;;4990257;28;20030;-63
2023/03/27 13:39:56;;;;;;;3.92;0.70;;;;;;;;;;4993050;28;20104;-63
2023/03/27 13:42:25;;;;;;;4.35;0.77;;;;;;;;;;4990880;28;20050;-61
2023/03/27 13:44:56;;;;;;;3.00;0.60;;;;;;;;;;4995721;28;20657;-61
2023/03/27 13:47:21;;;;;;;3.72;0.50;;;;;;;;;;5001144;28;20036;-62
2023/03/27 13:49:46;;;;;;;3.33;0.73;;;;;;;;;;4997123;28;20034;-62
2023/03/27 13:52:28;;;;;;;4.32;0.90;;;;;;;;;;4991428;28;20014;-62
2023/03/27 13:54:59;;;;;;;2.53;0.68;;;;;;;;;;5007306;28;20105;-63
2023/03/27 13:57:42;;;;;;;4.40;0.80;;;;;;;;;;5013399;28;20026;-62
2023/03/27 14:00:17;;;;;;;3.90;1.00;;;;;;;;;;5007900;28;20113;-63
2023/03/27 14:02:56;;;;;;;7.68;0.90;;;;;;;;;;5009599;28;20022;-63
2023/03/27 14:05:27;;;;;;;2.55;0.60;;;;;;;;;;5005351;28;20109;-63
2023/03/27 14:07:52;;;;;;;3.70;0.90;;;;;;;;;;5013562;28;20018;-64
2023/03/27 14:10:23;;;;;;;2.90;0.70;;;;;;;;;;5013883;28;20109;-62
2023/03/27 14:12:55;;;;;;;4.70;1.00;;;;;;;;;;5004463;28;20089;-63
2023/03/27 14:15:32;;;;;;;7.20;1.90;;;;;;;;;;4994197;28;20125;-62
2023/03/27 14:18:09;;;;;;;5.22;1.00;;;;;;;;;;4993627;28;20077;-63
2023/03/27 14:20:42;;;;;;;3.42;0.80;;;;;;;;;;4994608;28;20046;-62
2023/03/27 14:23:11;;;;;;;;;;;;;;;;;;4994978;28;20037;-63
2023/03/27 14:25:38;;;;;;;3.28;0.82;;;;;;;;;;4994432;28;20004;-63
2023/03/27 14:28:04;;;;;;;3.67;0.80;;;;;;;;;;5003260;28;20113;-63
2023/03/27 14:30:37;;;;;;;4.47;0.80;;;;;;;;;;5013545;28;20512;-62
2023/03/27 14:33:05;;;;;;;2.80;0.70;;;;;;;;;;5014088;28;20053;-62
2023/03/27 14:35:34;;;;;;;3.15;0.52;;;;;;;;;;5010548;28;20026;-63
2023/03/27 14:38:00;;;;;;;2.33;0.70;;;;;;;;;;5012937;28;20064;-63
2023/03/27 14:40:28;;;;;;;3.20;0.80;;;;;;;;;;5014067;28;20068;-63
2023/03/27 14:42:54;;;;;;;2.30;0.52;;;;;;;;;;5013985;28;20013;-62
2023/03/27 14:45:21;;;;;;;3.08;0.73;;;;;;;;;;5013931;28;20022;-63
2023/03/27 14:47:48;;;;;;;3.38;0.70;;;;;;;;;;5000696;28;20410;-62
2023/03/27 14:50:13;;;;;;;2.80;0.70;;;;;;;;;;4994466;28;20070;-62
2023/03/27 14:52:40;;;;;;;3.47;0.75;;;;;;;;;;4994045;28;20551;-63